createdAt,value
2022-08-16T00:00:47.389Z,27.91
2022-08-16T00:02:56.804Z,27.91
2022-08-16T00:05:01.858Z,27.91
2022-08-16T00:07:06.680Z,27.9
2022-08-16T00:09:12.634Z,27.9
2022-08-16T00:11:18.994Z,27.89
2022-08-16T00:13:27.202Z,27.89
2022-08-16T00:15:50.793Z,27.89
2022-08-16T00:17:57.949Z,27.88
2022-08-16T00:20:03.942Z,27.89
2022-08-16T00:22:16.010Z,27.88
2022-08-16T00:24:30.984Z,27.87
2022-08-16T00:26:38.647Z,27.87
2022-08-16T00:28:54.500Z,27.89
2022-08-16T00:31:01.721Z,27.89
2022-08-16T00:33:08.318Z,27.9
2022-08-16T00:35:15.407Z,27.9
2022-08-16T00:37:24.283Z,27.9
2022-08-16T00:40:03.566Z,27.9
2022-08-16T00:42:39.278Z,27.91
2022-08-16T00:44:48.917Z,27.9
2022-08-16T00:47:02.346Z,27.89
2022-08-16T00:49:17.169Z,27.9
2022-08-16T00:51:24.181Z,27.9
2022-08-16T00:53:33.105Z,27.91
2022-08-16T00:55:38.305Z,27.92
2022-08-16T00:57:59.306Z,27.9
2022-08-16T01:00:19.197Z,27.91
2022-08-16T01:02:31.113Z,27.91
2022-08-16T01:04:37.892Z,27.91
2022-08-16T01:07:11.597Z,27.93
2022-08-16T01:09:22.459Z,27.93
2022-08-16T01:11:51.678Z,27.91
2022-08-16T01:14:00.477Z,27.89
2022-08-16T01:16:10.190Z,27.89
2022-08-16T01:18:39.494Z,27.87
2022-08-16T01:20:46.392Z,27.89
2022-08-16T01:22:55.864Z,27.87
2022-08-16T01:25:03.731Z,27.87
2022-08-16T01:27:09.478Z,27.86
2022-08-16T01:29:17.790Z,27.86
2022-08-16T01:32:01.216Z,27.86
2022-08-16T01:34:07.130Z,27.83
2022-08-16T01:36:29.302Z,27.82
2022-08-16T01:38:34.333Z,27.81
2022-08-16T01:40:40.486Z,27.8
2022-08-16T01:42:49.628Z,27.77
2022-08-16T01:44:59.261Z,27.76
2022-08-16T01:47:04.494Z,27.75
2022-08-16T01:49:10.957Z,27.72
2022-08-16T01:51:17.260Z,27.72
2022-08-16T01:53:25.322Z,27.71
2022-08-16T01:55:36.192Z,27.71
2022-08-16T01:57:56.890Z,27.71
2022-08-16T02:00:05.503Z,27.68
2022-08-16T02:02:31.577Z,27.66
2022-08-16T02:04:48.443Z,27.65
2022-08-16T02:07:00.226Z,27.65
2022-08-16T02:09:05.635Z,27.65
2022-08-16T02:11:15.200Z,27.65
2022-08-16T02:13:20.029Z,27.62
2022-08-16T02:15:42.445Z,27.6
2022-08-16T02:17:53.132Z,27.6
2022-08-16T02:20:00.592Z,27.57
2022-08-16T02:22:33.435Z,27.56
2022-08-16T02:24:42.165Z,27.54
2022-08-16T02:26:50.532Z,27.54
2022-08-16T02:28:57.406Z,27.55
2022-08-16T02:31:04.280Z,27.54
2022-08-16T02:33:11.469Z,27.54
2022-08-16T02:35:23.021Z,27.54
2022-08-16T02:37:39.927Z,27.54
2022-08-16T02:40:11.117Z,27.57
2022-08-16T02:42:20.019Z,27.56
2022-08-16T02:44:25.958Z,27.56
2022-08-16T02:46:33.569Z,27.56
2022-08-16T02:48:47.349Z,27.55
2022-08-16T02:51:03.055Z,27.53
2022-08-16T02:53:18.124Z,27.55
2022-08-16T02:55:40.557Z,27.53
2022-08-16T02:57:53.759Z,27.55
2022-08-16T02:59:59.971Z,27.54
2022-08-16T03:02:38.696Z,27.54
2022-08-16T03:04:50.595Z,27.54
2022-08-16T03:06:58.377Z,27.54
2022-08-16T03:09:07.001Z,27.54
2022-08-16T03:11:20.596Z,27.52
2022-08-16T03:13:40.094Z,27.51
2022-08-16T03:15:50.157Z,27.51
2022-08-16T03:17:54.779Z,27.5
2022-08-16T03:20:02.665Z,27.48
2022-08-16T03:22:07.395Z,27.46
2022-08-16T03:24:27.805Z,27.46
2022-08-16T03:26:34.866Z,27.45
2022-08-16T03:28:41.120Z,27.46
2022-08-16T03:30:46.055Z,27.44
2022-08-16T03:32:52.481Z,27.45
2022-08-16T03:34:57.648Z,27.42
2022-08-16T03:37:02.473Z,27.42
2022-08-16T03:39:10.793Z,27.41
2022-08-16T03:41:25.820Z,27.4
2022-08-16T03:44:02.207Z,27.39
2022-08-16T03:46:08.257Z,27.39
2022-08-16T03:48:46.891Z,27.39
2022-08-16T03:50:59.732Z,27.38
2022-08-16T03:53:08.507Z,27.38
2022-08-16T03:55:14.639Z,27.36
2022-08-16T03:57:20.089Z,27.35
2022-08-16T03:59:29.214Z,27.35
2022-08-16T04:01:34.284Z,27.34
2022-08-16T04:03:39.603Z,27.33
2022-08-16T04:05:48.635Z,27.32
2022-08-16T04:07:56.566Z,27.3
2022-08-16T04:10:35.716Z,27.32
2022-08-16T04:12:53.041Z,27.31
2022-08-16T04:15:23.091Z,27.31
2022-08-16T04:17:30.900Z,27.33
2022-08-16T04:19:37.669Z,27.31
2022-08-16T04:21:56.669Z,27.32
2022-08-16T04:24:11.279Z,27.32
2022-08-16T04:26:17.745Z,27.31
2022-08-16T04:28:28.919Z,27.3
2022-08-16T04:31:27.820Z,27.32
2022-08-16T04:33:38.127Z,27.29
2022-08-16T04:35:56.418Z,27.28
2022-08-16T04:38:01.139Z,27.28
2022-08-16T04:40:25.019Z,27.27
2022-08-16T04:42:29.962Z,27.28
2022-08-16T04:44:57.294Z,27.28
2022-08-16T04:47:21.365Z,27.29
2022-08-16T04:49:38.655Z,27.31
2022-08-16T04:51:53.758Z,27.31
2022-08-16T04:53:59.910Z,27.31
2022-08-16T04:56:05.865Z,27.3
2022-08-16T04:58:38.211Z,27.3
2022-08-16T05:00:50.948Z,27.29
2022-08-16T05:02:56.373Z,27.29
2022-08-16T05:05:16.982Z,27.28
2022-08-16T05:07:22.737Z,27.28
2022-08-16T05:09:28.438Z,27.3
2022-08-16T05:11:38.840Z,27.29
2022-08-16T05:13:44.281Z,27.28
2022-08-16T05:15:49.766Z,27.28
2022-08-16T05:17:59.762Z,27.27
2022-08-16T05:20:35.438Z,27.27
2022-08-16T05:23:15.244Z,27.28
2022-08-16T05:25:19.886Z,27.28
2022-08-16T05:27:43.969Z,27.27
2022-08-16T05:29:58.005Z,27.26
2022-08-16T05:32:45.929Z,27.27
2022-08-16T05:34:52.724Z,27.28
2022-08-16T05:36:58.977Z,27.28
2022-08-16T05:39:05.045Z,27.27
2022-08-16T05:41:13.760Z,27.28
2022-08-16T05:43:21.237Z,27.3
2022-08-16T05:45:25.865Z,27.31
2022-08-16T05:47:32.744Z,27.31
2022-08-16T05:49:50.583Z,27.32
2022-08-16T05:51:55.803Z,27.32
2022-08-16T05:54:00.327Z,27.28
2022-08-16T05:56:06.078Z,27.25
2022-08-16T05:58:32.070Z,27.22
2022-08-16T06:00:38.151Z,27.2
2022-08-16T06:02:43.284Z,27.2
2022-08-16T06:04:52.565Z,27.2
2022-08-16T06:07:00.847Z,27.19
2022-08-16T06:09:12.099Z,27.19
2022-08-16T06:11:20.411Z,27.24
2022-08-16T06:13:33.336Z,27.27
2022-08-16T06:15:37.840Z,27.3
2022-08-16T06:17:45.944Z,27.31
2022-08-16T06:19:55.276Z,27.33
2022-08-16T06:22:00.615Z,27.33
2022-08-16T06:24:53.151Z,27.36
2022-08-16T06:27:00.031Z,27.39
2022-08-16T06:29:07.654Z,27.42
2022-08-16T06:31:12.760Z,27.42
2022-08-16T06:33:19.967Z,27.43
2022-08-16T06:35:27.131Z,27.43
2022-08-16T06:37:47.647Z,27.46
2022-08-16T06:39:58.175Z,27.48
2022-08-16T06:42:02.907Z,27.52
2022-08-16T06:44:09.458Z,27.53
2022-08-16T06:46:31.481Z,27.57
2022-08-16T06:48:36.938Z,27.57
2022-08-16T06:50:54.468Z,27.57
2022-08-16T06:53:00.868Z,27.55
2022-08-16T06:55:13.499Z,27.54
2022-08-16T06:57:18.983Z,27.53
2022-08-16T06:59:25.751Z,27.53
2022-08-16T07:01:55.241Z,27.53
2022-08-16T07:04:02.846Z,27.53
2022-08-16T07:06:34.402Z,27.53
2022-08-16T07:08:40.057Z,27.52
2022-08-16T07:10:44.674Z,27.52
2022-08-16T07:12:56.732Z,27.52
2022-08-16T07:15:50.252Z,27.53
2022-08-16T07:17:57.105Z,27.53
2022-08-16T07:20:30.566Z,27.53
2022-08-16T07:22:58.930Z,27.53
2022-08-16T07:25:16.042Z,27.53
2022-08-16T07:27:25.339Z,27.52
2022-08-16T07:29:31.459Z,27.51
2022-08-16T07:31:37.694Z,27.52
2022-08-16T07:33:51.552Z,27.52
2022-08-16T07:35:59.687Z,27.52
2022-08-16T07:38:06.976Z,27.51
2022-08-16T07:40:11.757Z,27.51
2022-08-16T07:42:20.453Z,27.51
2022-08-16T07:44:49.256Z,27.52
2022-08-16T07:46:56.446Z,27.52
2022-08-16T07:49:02.217Z,27.53
2022-08-16T07:51:13.810Z,27.52
2022-08-16T07:53:18.446Z,27.52
2022-08-16T07:55:23.987Z,27.52
2022-08-16T07:57:30.037Z,27.52
2022-08-16T08:00:00.676Z,27.53
2022-08-16T08:02:11.864Z,27.53
2022-08-16T08:04:23.724Z,27.53
2022-08-16T08:06:37.358Z,27.54
2022-08-16T08:08:49.867Z,27.53
2022-08-16T08:11:08.992Z,27.52
2022-08-16T08:13:20.811Z,27.53
2022-08-16T08:15:52.847Z,27.54
2022-08-16T08:18:29.634Z,27.55
2022-08-16T08:20:35.112Z,27.56
2022-08-16T08:22:41.570Z,27.56
2022-08-16T08:24:47.304Z,27.55
2022-08-16T08:26:52.453Z,27.55
2022-08-16T08:29:00.866Z,27.54
2022-08-16T08:31:11.103Z,27.54
2022-08-16T08:33:21.349Z,27.54
2022-08-16T08:35:31.708Z,27.54
2022-08-16T08:37:51.264Z,27.54
2022-08-16T08:40:00.187Z,27.53
2022-08-16T08:42:06.837Z,27.54
2022-08-16T08:44:28.104Z,27.55
2022-08-16T08:46:36.349Z,27.55
2022-08-16T08:48:43.982Z,27.55
2022-08-16T08:51:05.086Z,27.55
2022-08-16T08:53:13.811Z,27.54
2022-08-16T08:55:18.940Z,27.55
2022-08-16T08:57:24.066Z,27.54
2022-08-16T08:59:31.462Z,27.54
2022-08-16T09:01:56.244Z,27.54
2022-08-16T09:04:05.709Z,27.53
2022-08-16T09:06:10.922Z,27.54
2022-08-16T09:08:26.405Z,27.54
2022-08-16T09:10:31.246Z,27.55
2022-08-16T09:12:46.514Z,27.55
2022-08-16T09:14:53.368Z,27.55
2022-08-16T09:17:02.654Z,27.55
2022-08-16T09:19:53.861Z,27.55
2022-08-16T09:22:05.391Z,27.55
2022-08-16T09:24:32.197Z,27.56
2022-08-16T09:27:15.964Z,27.57
2022-08-16T09:29:23.605Z,27.57
2022-08-16T09:31:53.272Z,27.57
2022-08-16T09:33:57.992Z,27.58
2022-08-16T09:36:02.614Z,27.58
2022-08-16T09:38:22.234Z,27.59
2022-08-16T09:40:43.027Z,27.58
2022-08-16T09:42:56.313Z,27.59
2022-08-16T09:45:10.096Z,27.59
2022-08-16T09:47:24.768Z,27.6
2022-08-16T09:50:01.058Z,27.59
2022-08-16T09:52:14.334Z,27.6
2022-08-16T09:54:20.833Z,27.61
2022-08-16T09:56:26.494Z,27.61
2022-08-16T09:58:39.187Z,27.62
2022-08-16T10:01:11.581Z,27.62
2022-08-16T10:03:16.669Z,27.62
2022-08-16T10:05:22.159Z,27.62
2022-08-16T10:07:38.431Z,27.63
2022-08-16T10:10:00.576Z,27.62
2022-08-16T10:12:11.181Z,27.63
2022-08-16T10:14:24.457Z,27.63
2022-08-16T10:16:36.967Z,27.64
2022-08-16T10:19:01.077Z,27.64
2022-08-16T10:21:12.114Z,27.65
2022-08-16T10:23:18.172Z,27.65
2022-08-16T10:26:59.715Z,27.66
2022-08-16T10:30:02.119Z,27.68
2022-08-16T10:32:32.446Z,27.68
2022-08-16T10:34:41.894Z,27.7
2022-08-16T10:36:55.114Z,27.7
2022-08-16T10:39:00.042Z,27.7
2022-08-16T10:41:07.317Z,27.69
2022-08-16T10:43:18.786Z,27.69
2022-08-16T10:45:23.939Z,27.7
2022-08-16T10:47:39.217Z,27.69
2022-08-16T10:49:45.686Z,27.69
2022-08-16T10:52:02.106Z,27.69
2022-08-16T10:54:28.352Z,27.7
2022-08-16T10:56:44.351Z,27.7
2022-08-16T11:06:06.478Z,27.74
2022-08-16T11:08:16.278Z,27.75
2022-08-16T11:19:18.530Z,27.77
2022-08-16T11:21:28.924Z,27.78
2022-08-16T11:23:34.728Z,27.79
2022-08-16T11:26:08.139Z,27.8
2022-08-16T11:31:19.021Z,27.82
2022-08-16T11:33:51.703Z,27.83
2022-08-16T11:36:28.726Z,27.84
2022-08-16T11:38:47.716Z,27.85
2022-08-16T11:41:03.000Z,27.86
2022-08-16T11:43:10.069Z,27.86
2022-08-16T11:45:14.818Z,27.87
2022-08-16T11:47:21.981Z,27.88
2022-08-16T11:49:26.503Z,27.87
2022-08-16T11:51:31.239Z,27.87
2022-08-16T11:53:36.196Z,27.87
2022-08-16T11:55:40.869Z,27.87
2022-08-16T11:57:57.693Z,27.88
2022-08-16T12:00:03.734Z,27.87
2022-08-16T12:02:36.411Z,27.88
2022-08-16T12:04:51.879Z,27.89
2022-08-16T12:06:58.856Z,27.9
2022-08-16T12:09:06.230Z,27.9
2022-08-16T12:11:14.966Z,27.9
2022-08-16T12:13:24.907Z,27.9
2022-08-16T12:15:29.426Z,27.91
2022-08-16T12:17:40.149Z,27.91
2022-08-16T12:19:46.306Z,27.91
2022-08-16T12:21:57.970Z,27.92
2022-08-16T12:24:08.297Z,27.93
2022-08-16T12:26:13.941Z,27.93
2022-08-16T12:28:25.293Z,27.94
2022-08-16T12:30:59.144Z,27.95
2022-08-16T12:33:04.351Z,27.96
2022-08-16T12:35:11.635Z,27.96
2022-08-16T12:37:16.456Z,27.96
2022-08-16T12:39:21.191Z,27.96
2022-08-16T12:41:31.438Z,27.96
2022-08-16T12:43:47.629Z,27.97
2022-08-16T12:45:59.722Z,27.97
2022-08-16T12:48:29.672Z,27.98
2022-08-16T12:50:39.751Z,27.99
2022-08-16T12:52:52.700Z,28
2022-08-16T12:55:00.904Z,28.01
2022-08-16T12:57:05.634Z,28.02
2022-08-16T12:59:23.875Z,28.03
2022-08-16T13:01:40.984Z,28.04
2022-08-16T13:03:45.713Z,28.05
2022-08-16T13:05:53.414Z,28.05
2022-08-16T13:08:02.942Z,28.06
2022-08-16T13:10:09.843Z,28.07
2022-08-16T13:12:42.756Z,28.08
2022-08-16T13:14:51.922Z,28.08
2022-08-16T13:16:56.462Z,28.09
2022-08-16T13:19:04.435Z,28.09
2022-08-16T13:21:13.049Z,28.09
2022-08-16T13:23:18.593Z,28.09
2022-08-16T13:25:26.184Z,28.09
2022-08-16T13:28:10.871Z,28.08
2022-08-16T13:30:35.711Z,28.09
2022-08-16T13:32:47.347Z,28.1
2022-08-16T13:34:56.763Z,28.1
2022-08-16T13:37:03.635Z,28.09
2022-08-16T13:39:08.761Z,28.09
2022-08-16T13:41:13.689Z,28.09
2022-08-16T13:43:18.879Z,28.08
2022-08-16T13:45:25.397Z,28.06
2022-08-16T13:47:35.749Z,28.11
2022-08-16T13:49:43.858Z,28.12
2022-08-16T13:51:49.811Z,28.15
2022-08-16T13:54:00.104Z,28.18
2022-08-16T13:56:08.061Z,28.18
2022-08-16T13:58:48.159Z,28.14
2022-08-16T14:01:00.302Z,28.1
2022-08-16T14:03:12.007Z,28.08
2022-08-16T14:05:23.679Z,28.06
2022-08-16T14:07:29.733Z,28.02
2022-08-16T14:09:55.457Z,28.02
2022-08-16T14:12:00.924Z,28.05
2022-08-16T14:14:21.608Z,28.06
2022-08-16T14:16:34.745Z,28.05
2022-08-16T14:18:40.143Z,28.05
2022-08-16T14:20:51.047Z,28.07
2022-08-16T14:22:55.744Z,28.12
2022-08-16T14:25:01.178Z,28.16
2022-08-16T14:27:18.802Z,28.18
2022-08-16T14:29:25.728Z,28.18
2022-08-16T14:31:40.988Z,28.17
2022-08-16T14:33:45.671Z,28.18
2022-08-16T14:35:50.870Z,28.18
2022-08-16T14:37:56.868Z,28.16
2022-08-16T14:40:03.132Z,28.18
2022-08-16T14:42:08.959Z,28.21
2022-08-16T14:44:18.353Z,28.22
2022-08-16T14:46:24.033Z,28.24
2022-08-16T14:48:29.479Z,28.26
2022-08-16T14:50:34.001Z,28.26
2022-08-16T14:52:57.337Z,28.28
2022-08-16T14:55:02.399Z,28.31
2022-08-16T14:57:06.927Z,28.32
2022-08-16T14:59:11.533Z,28.32
2022-08-16T15:01:16.119Z,28.37
2022-08-16T15:03:21.215Z,28.42
2022-08-16T15:05:26.033Z,28.46
2022-08-16T15:07:35.525Z,28.52
2022-08-16T15:09:43.794Z,28.57
2022-08-16T15:12:06.095Z,28.62
2022-08-16T15:14:35.292Z,28.67
2022-08-16T15:16:43.226Z,28.7
2022-08-16T15:18:52.011Z,28.73
2022-08-16T15:20:58.577Z,28.76
2022-08-16T15:23:04.147Z,28.76
2022-08-16T15:25:08.848Z,28.78
2022-08-16T15:27:15.105Z,28.79
2022-08-16T15:29:19.724Z,28.81
2022-08-16T15:31:25.370Z,28.84
2022-08-16T15:33:32.139Z,28.84
2022-08-16T15:35:38.649Z,28.84
2022-08-16T15:37:43.997Z,28.84
2022-08-16T15:39:57.138Z,28.85
2022-08-16T15:42:02.214Z,28.87
2022-08-16T15:44:10.201Z,28.87
2022-08-16T15:46:15.327Z,28.89
2022-08-16T15:49:07.585Z,28.91
2022-08-16T15:51:14.656Z,28.95
2022-08-16T15:53:19.327Z,28.93
2022-08-16T15:55:34.621Z,28.93
2022-08-16T15:57:41.503Z,28.92
2022-08-16T15:59:48.390Z,28.94
2022-08-16T16:02:19.425Z,28.97
2022-08-16T16:04:34.596Z,28.98
2022-08-16T16:06:40.723Z,29
2022-08-16T16:08:45.358Z,29
2022-08-16T16:10:54.340Z,29.04
2022-08-16T16:12:58.885Z,29.08
2022-08-16T16:15:03.805Z,29.1
2022-08-16T16:17:16.189Z,29.14
2022-08-16T16:19:22.670Z,29.16
2022-08-16T16:21:30.939Z,29.17
2022-08-16T16:23:35.654Z,29.19
2022-08-16T16:26:00.449Z,29.19
2022-08-16T16:28:12.625Z,29.17
2022-08-16T16:31:17.604Z,29.15
2022-08-16T16:33:22.407Z,29.12
2022-08-16T16:35:26.918Z,29.09
2022-08-16T16:37:36.051Z,29.07
2022-08-16T16:39:47.490Z,29.07
2022-08-16T16:41:57.069Z,29.05
2022-08-16T16:44:06.671Z,29.04
2022-08-16T16:46:23.738Z,29.03
2022-08-16T16:49:00.504Z,29
2022-08-16T16:51:10.003Z,29
2022-08-16T16:53:16.998Z,29
2022-08-16T16:55:34.121Z,29
2022-08-16T16:57:43.554Z,28.99
2022-08-16T16:59:48.685Z,29
2022-08-16T17:02:38.381Z,29
2022-08-16T17:04:57.635Z,28.99
2022-08-16T17:07:03.278Z,29
2022-08-16T17:09:14.878Z,29.01
2022-08-16T17:11:19.404Z,29.02
2022-08-16T17:13:25.031Z,29.02
2022-08-16T17:15:36.212Z,29.03
2022-08-16T17:17:59.533Z,29.04
2022-08-16T17:21:34.192Z,29.03
2022-08-16T17:23:57.689Z,29.03
2022-08-16T17:26:19.888Z,29.05
2022-08-16T17:28:57.840Z,29.06
2022-08-16T17:31:16.323Z,29.07
2022-08-16T17:33:54.286Z,29.08
2022-08-16T17:36:05.828Z,29.08
2022-08-16T17:38:54.917Z,29.1
2022-08-16T17:41:01.604Z,29.12
2022-08-16T17:43:10.604Z,29.16
2022-08-16T17:45:15.357Z,29.16
2022-08-16T17:47:20.152Z,29.17
2022-08-16T17:49:24.965Z,29.16
2022-08-16T17:51:29.488Z,29.14
2022-08-16T17:53:34.013Z,29.11
2022-08-16T17:55:38.523Z,29.09
2022-08-16T17:57:44.788Z,29.06
2022-08-16T17:59:52.173Z,29.04
2022-08-16T18:01:56.859Z,29.03
2022-08-16T18:04:03.491Z,29.03
2022-08-16T18:06:51.089Z,29.01
2022-08-16T18:09:00.520Z,29
2022-08-16T18:11:08.730Z,29.01
2022-08-16T18:13:15.904Z,28.99
2022-08-16T18:15:20.393Z,28.98
2022-08-16T18:17:25.052Z,28.99
2022-08-16T18:19:29.566Z,29
2022-08-16T18:21:39.515Z,29
2022-08-16T18:23:44.034Z,29
2022-08-16T18:25:48.659Z,29.01
2022-08-16T18:27:53.280Z,28.99
2022-08-16T18:29:57.795Z,28.98
2022-08-16T18:32:02.415Z,28.98
2022-08-16T18:34:06.933Z,28.98
2022-08-16T18:36:20.373Z,28.97
2022-08-16T18:38:25.445Z,28.94
2022-08-16T18:40:29.910Z,28.95
2022-08-16T18:42:34.434Z,28.95
2022-08-16T18:44:38.992Z,28.97
2022-08-16T18:46:43.707Z,28.97
2022-08-16T18:48:53.270Z,28.98
2022-08-16T18:50:58.695Z,28.97
2022-08-16T18:53:24.162Z,28.97
2022-08-16T18:55:28.685Z,28.97
2022-08-16T18:57:47.983Z,28.96
2022-08-16T18:59:53.182Z,28.93
2022-08-16T19:01:59.913Z,28.91
2022-08-16T19:04:48.269Z,28.9
2022-08-16T19:07:02.245Z,28.91
2022-08-16T19:09:06.962Z,28.89
2022-08-16T19:11:11.483Z,28.89
2022-08-16T19:13:16.000Z,28.87
2022-08-16T19:15:20.632Z,28.85
2022-08-16T19:17:25.140Z,28.83
2022-08-16T19:19:29.571Z,28.8
2022-08-16T19:21:33.914Z,28.8
2022-08-16T19:23:38.387Z,28.81
2022-08-16T19:25:46.573Z,28.81
2022-08-16T19:27:57.065Z,28.83
2022-08-16T19:30:02.817Z,28.84
2022-08-16T19:32:07.531Z,28.87
2022-08-16T19:34:12.167Z,28.87
2022-08-16T19:36:17.141Z,28.88
2022-08-16T19:38:39.891Z,28.86
2022-08-16T19:40:46.919Z,28.86
2022-08-16T19:42:51.640Z,28.84
2022-08-16T19:44:56.266Z,28.83
2022-08-16T19:47:00.772Z,28.84
2022-08-16T19:49:05.291Z,28.84
2022-08-16T19:51:10.015Z,28.82
2022-08-16T19:53:19.069Z,28.82
2022-08-16T19:55:23.965Z,28.84
2022-08-16T19:57:28.892Z,28.84
2022-08-16T19:59:39.782Z,28.79
2022-08-16T20:01:45.007Z,28.81
2022-08-16T20:03:49.619Z,28.8
2022-08-16T20:05:54.342Z,28.81
2022-08-16T20:08:03.809Z,28.82
2022-08-16T20:10:08.914Z,28.8
2022-08-16T20:12:13.566Z,28.79
2022-08-16T20:14:19.192Z,28.8
2022-08-16T20:16:30.360Z,28.77
2022-08-16T20:18:34.912Z,28.75
2022-08-16T20:20:39.600Z,28.74
2022-08-16T20:22:53.300Z,28.75
2022-08-16T20:25:07.430Z,28.74
2022-08-16T20:27:11.992Z,28.74
2022-08-16T20:29:16.513Z,28.73
2022-08-16T20:31:21.141Z,28.72
2022-08-16T20:33:25.655Z,28.74
2022-08-16T20:35:30.178Z,28.74
2022-08-16T20:37:34.693Z,28.76
2022-08-16T20:39:39.264Z,28.76
2022-08-16T20:41:43.936Z,28.78
2022-08-16T20:43:49.678Z,28.74
2022-08-16T20:45:58.445Z,28.73
2022-08-16T20:48:03.021Z,28.69
2022-08-16T20:50:07.542Z,28.7
2022-08-16T20:52:12.060Z,28.68
2022-08-16T20:54:16.579Z,28.67
2022-08-16T20:56:21.048Z,28.68
2022-08-16T20:58:25.620Z,28.66
2022-08-16T21:00:30.134Z,28.66
2022-08-16T21:02:34.651Z,28.65
2022-08-16T21:04:42.514Z,28.66
2022-08-16T21:06:53.326Z,28.65
2022-08-16T21:08:59.270Z,28.63
2022-08-16T21:11:03.868Z,28.6
2022-08-16T21:13:08.408Z,28.59
2022-08-16T21:15:12.928Z,28.6
2022-08-16T21:17:18.062Z,28.57
2022-08-16T21:19:22.687Z,28.55
2022-08-16T21:21:31.811Z,28.54
2022-08-16T21:23:38.175Z,28.55
2022-08-16T21:25:42.934Z,28.52
2022-08-16T21:28:39.612Z,28.47
2022-08-16T21:30:48.931Z,28.47
2022-08-16T21:32:53.387Z,28.48
2022-08-16T21:34:57.913Z,28.52
2022-08-16T21:37:02.432Z,28.57
2022-08-16T21:39:06.942Z,28.6
2022-08-16T21:41:11.482Z,28.66
2022-08-16T21:43:15.980Z,28.67
2022-08-16T21:45:20.500Z,28.68
2022-08-16T21:47:25.025Z,28.7
2022-08-16T21:49:29.534Z,28.7
2022-08-16T21:51:34.067Z,28.71
2022-08-16T21:53:38.685Z,28.72
2022-08-16T21:55:43.306Z,28.72
2022-08-16T21:57:47.826Z,28.72
2022-08-16T21:59:52.344Z,28.71
2022-08-16T22:01:56.946Z,28.73
2022-08-16T22:04:36.434Z,28.74
2022-08-16T22:06:42.865Z,28.74
2022-08-16T22:08:47.872Z,28.75
2022-08-16T22:11:00.423Z,28.75
2022-08-16T22:13:13.216Z,28.74
2022-08-16T22:15:19.858Z,28.74
2022-08-16T22:17:29.320Z,28.75
2022-08-16T22:19:34.350Z,28.77
2022-08-16T22:21:38.870Z,28.76
2022-08-16T22:23:43.390Z,28.76
2022-08-16T22:25:57.742Z,28.75
2022-08-16T22:28:02.252Z,28.75
2022-08-16T22:30:07.028Z,28.77
2022-08-16T22:32:16.424Z,28.76
2022-08-16T22:34:20.932Z,28.74
2022-08-16T22:36:28.328Z,28.74
2022-08-16T22:38:50.677Z,28.74
2022-08-16T22:41:02.041Z,28.73
2022-08-16T22:43:06.658Z,28.72
2022-08-16T22:45:11.181Z,28.73
2022-08-16T22:47:17.240Z,28.73
2022-08-16T22:49:25.135Z,28.73
2022-08-16T22:51:29.654Z,28.73
2022-08-16T22:53:34.271Z,28.71
2022-08-16T22:55:41.862Z,28.7
2022-08-16T22:57:46.377Z,28.69
2022-08-16T22:59:52.689Z,28.68
2022-08-16T23:01:57.670Z,28.68
2022-08-16T23:04:02.505Z,28.66
2022-08-16T23:06:07.020Z,28.64
2022-08-16T23:08:11.646Z,28.64
2022-08-16T23:10:34.692Z,28.64
2022-08-16T23:12:39.216Z,28.64
2022-08-16T23:14:43.732Z,28.65
2022-08-16T23:16:48.246Z,28.64
2022-08-16T23:18:52.779Z,28.61
2022-08-16T23:20:58.728Z,28.61
2022-08-16T23:23:20.130Z,28.61
2022-08-16T23:25:26.607Z,28.59
2022-08-16T23:27:31.159Z,28.61
2022-08-16T23:29:35.750Z,28.59
2022-08-16T23:31:40.461Z,28.59
2022-08-16T23:33:44.984Z,28.59
2022-08-16T23:35:49.414Z,28.59
2022-08-16T23:37:53.934Z,28.59
2022-08-16T23:39:58.557Z,28.56
2022-08-16T23:42:03.265Z,28.56
2022-08-16T23:44:42.486Z,28.54
2022-08-16T23:47:03.086Z,28.55
2022-08-16T23:49:45.408Z,28.55
2022-08-16T23:52:07.833Z,28.54
2022-08-16T23:54:12.356Z,28.54
2022-08-16T23:56:16.877Z,28.54
2022-08-16T23:58:21.394Z,28.52
